sensor_id;sensor_type;location;lat;lon;timestamp;pressure;altitude;pressure_sealevel;temperature;humidity
82178;BME280;71761;21.336;-157.724;2023-08-07T00:01:43;101320.90;;;34.36;36.57
82178;BME280;71761;21.336;-157.724;2023-08-07T00:04:08;101319.33;;;34.22;36.76
82178;BME280;71761;21.336;-157.724;2023-08-07T00:06:34;101319.27;;;33.78;37.02
82178;BME280;71761;21.336;-157.724;2023-08-07T00:08:59;101314.38;;;34.22;36.89
82178;BME280;71761;21.336;-157.724;2023-08-07T00:11:24;101312.78;;;33.96;37.15
82178;BME280;71761;21.336;-157.724;2023-08-07T00:13:49;101308.23;;;33.76;37.50
82178;BME280;71761;21.336;-157.724;2023-08-07T00:16:15;101310.81;;;33.90;36.72
82178;BME280;71761;21.336;-157.724;2023-08-07T00:18:41;101314.64;;;34.16;36.84
82178;BME280;71761;21.336;-157.724;2023-08-07T00:21:05;101312.14;;;34.41;36.68
82178;BME280;71761;21.336;-157.724;2023-08-07T00:23:31;101308.86;;;34.00;36.95
82178;BME280;71761;21.336;-157.724;2023-08-07T00:25:56;101306.80;;;33.35;37.88
82178;BME280;71761;21.336;-157.724;2023-08-07T00:28:22;101307.77;;;33.41;37.85
82178;BME280;71761;21.336;-157.724;2023-08-07T00:30:47;101308.18;;;33.29;37.86
82178;BME280;71761;21.336;-157.724;2023-08-07T00:33:12;101304.87;;;33.65;37.59
82178;BME280;71761;21.336;-157.724;2023-08-07T00:35:38;101297.83;;;33.36;37.95
82178;BME280;71761;21.336;-157.724;2023-08-07T00:38:03;101304.18;;;33.33;38.17
82178;BME280;71761;21.336;-157.724;2023-08-07T00:40:29;101303.42;;;33.54;37.92
82178;BME280;71761;21.336;-157.724;2023-08-07T00:42:54;101299.31;;;34.04;37.76
82178;BME280;71761;21.336;-157.724;2023-08-07T00:45:20;101298.64;;;33.52;37.84
82178;BME280;71761;21.336;-157.724;2023-08-07T00:47:45;101296.33;;;33.87;37.39
82178;BME280;71761;21.336;-157.724;2023-08-07T00:50:11;101301.02;;;32.78;38.71
82178;BME280;71761;21.336;-157.724;2023-08-07T00:52:35;101295.58;;;33.88;38.00
82178;BME280;71761;21.336;-157.724;2023-08-07T00:55:01;101292.43;;;33.74;37.84
82178;BME280;71761;21.336;-157.724;2023-08-07T00:57:26;101298.52;;;33.74;37.54
82178;BME280;71761;21.336;-157.724;2023-08-07T00:59:51;101294.17;;;33.83;37.72
82178;BME280;71761;21.336;-157.724;2023-08-07T01:02:18;101293.88;;;33.92;37.74
82178;BME280;71761;21.336;-157.724;2023-08-07T01:04:42;101298.36;;;32.77;38.05
82178;BME280;71761;21.336;-157.724;2023-08-07T01:07:08;101294.92;;;33.93;37.85
82178;BME280;71761;21.336;-157.724;2023-08-07T01:09:33;101302.02;;;33.73;38.13
82178;BME280;71761;21.336;-157.724;2023-08-07T01:12:06;101297.51;;;33.05;38.90
82178;BME280;71761;21.336;-157.724;2023-08-07T01:14:28;101288.93;;;33.48;38.67
82178;BME280;71761;21.336;-157.724;2023-08-07T01:16:52;101291.17;;;33.76;38.51
82178;BME280;71761;21.336;-157.724;2023-08-07T01:19:23;101298.74;;;33.14;38.57
82178;BME280;71761;21.336;-157.724;2023-08-07T01:21:39;101299.47;;;33.01;38.87
82178;BME280;71761;21.336;-157.724;2023-08-07T01:24:05;101299.64;;;33.45;38.21
82178;BME280;71761;21.336;-157.724;2023-08-07T01:26:30;101293.14;;;33.75;38.01
82178;BME280;71761;21.336;-157.724;2023-08-07T01:29:02;101296.30;;;33.19;38.54
82178;BME280;71761;21.336;-157.724;2023-08-07T01:31:23;101292.07;;;33.30;38.59
82178;BME280;71761;21.336;-157.724;2023-08-07T01:33:51;101299.71;;;32.34;39.54
82178;BME280;71761;21.336;-157.724;2023-08-07T01:36:12;101299.03;;;32.70;39.14
82178;BME280;71761;21.336;-157.724;2023-08-07T01:38:37;101297.34;;;32.67;38.72
82178;BME280;71761;21.336;-157.724;2023-08-07T01:41:03;101299.14;;;33.42;38.41
82178;BME280;71761;21.336;-157.724;2023-08-07T01:43:28;101296.16;;;32.69;39.02
82178;BME280;71761;21.336;-157.724;2023-08-07T01:45:53;101299.80;;;32.36;39.53
82178;BME280;71761;21.336;-157.724;2023-08-07T01:48:18;101304.50;;;32.07;39.90
82178;BME280;71761;21.336;-157.724;2023-08-07T01:50:44;101302.04;;;32.96;39.12
82178;BME280;71761;21.336;-157.724;2023-08-07T01:53:09;101298.27;;;32.10;40.11
82178;BME280;71761;21.336;-157.724;2023-08-07T01:55:35;101294.93;;;32.76;39.50
82178;BME280;71761;21.336;-157.724;2023-08-07T01:58:00;101299.68;;;32.76;39.27
82178;BME280;71761;21.336;-157.724;2023-08-07T02:00:25;101292.98;;;32.76;39.60
82178;BME280;71761;21.336;-157.724;2023-08-07T02:02:51;101294.09;;;32.25;39.89
82178;BME280;71761;21.336;-157.724;2023-08-07T02:05:16;101294.45;;;32.20;39.79
82178;BME280;71761;21.336;-157.724;2023-08-07T02:07:42;101291.45;;;32.40;39.38
82178;BME280;71761;21.336;-157.724;2023-08-07T02:10:07;101290.39;;;32.14;39.60
82178;BME280;71761;21.336;-157.724;2023-08-07T02:12:32;101284.02;;;32.44;38.89
82178;BME280;71761;21.336;-157.724;2023-08-07T02:14:58;101285.21;;;33.11;38.01
82178;BME280;71761;21.336;-157.724;2023-08-07T02:17:24;101289.37;;;33.13;37.97
82178;BME280;71761;21.336;-157.724;2023-08-07T02:19:49;101293.72;;;33.33;37.75
82178;BME280;71761;21.336;-157.724;2023-08-07T02:22:14;101295.03;;;33.19;37.86
82178;BME280;71761;21.336;-157.724;2023-08-07T02:24:39;101294.79;;;32.93;38.26
82178;BME280;71761;21.336;-157.724;2023-08-07T02:27:05;101298.81;;;33.19;38.62
82178;BME280;71761;21.336;-157.724;2023-08-07T02:29:30;101300.12;;;32.70;38.93
82178;BME280;71761;21.336;-157.724;2023-08-07T02:31:55;101302.56;;;32.67;39.07
82178;BME280;71761;21.336;-157.724;2023-08-07T02:34:20;101303.01;;;32.92;38.82
82178;BME280;71761;21.336;-157.724;2023-08-07T02:36:46;101303.28;;;31.92;40.07
82178;BME280;71761;21.336;-157.724;2023-08-07T02:39:13;101302.12;;;32.11;39.81
82178;BME280;71761;21.336;-157.724;2023-08-07T02:41:37;101299.04;;;31.99;39.33
82178;BME280;71761;21.336;-157.724;2023-08-07T02:44:02;101298.09;;;32.44;38.98
82178;BME280;71761;21.336;-157.724;2023-08-07T02:46:28;101300.03;;;33.01;38.62
82178;BME280;71761;21.336;-157.724;2023-08-07T02:48:53;101299.75;;;33.02;38.56
82178;BME280;71761;21.336;-157.724;2023-08-07T02:51:18;101299.67;;;32.87;38.68
82178;BME280;71761;21.336;-157.724;2023-08-07T02:53:44;101300.17;;;32.66;38.87
82178;BME280;71761;21.336;-157.724;2023-08-07T02:56:10;101301.25;;;32.18;39.47
82178;BME280;71761;21.336;-157.724;2023-08-07T02:58:34;101298.05;;;31.43;40.58
82178;BME280;71761;21.336;-157.724;2023-08-07T03:01:04;101299.25;;;31.88;40.90
82178;BME280;71761;21.336;-157.724;2023-08-07T03:03:25;101307.95;;;30.97;42.97
82178;BME280;71761;21.336;-157.724;2023-08-07T03:05:50;101306.52;;;31.01;42.22
82178;BME280;71761;21.336;-157.724;2023-08-07T03:08:16;101306.77;;;31.22;41.90
82178;BME280;71761;21.336;-157.724;2023-08-07T03:10:41;101305.58;;;31.60;41.38
82178;BME280;71761;21.336;-157.724;2023-08-07T03:13:07;101306.28;;;31.53;41.50
82178;BME280;71761;21.336;-157.724;2023-08-07T03:15:32;101305.73;;;31.20;42.00
82178;BME280;71761;21.336;-157.724;2023-08-07T03:17:58;101305.91;;;31.70;41.22
82178;BME280;71761;21.336;-157.724;2023-08-07T03:20:23;101306.74;;;31.59;41.37
82178;BME280;71761;21.336;-157.724;2023-08-07T03:22:49;101306.11;;;31.48;41.47
82178;BME280;71761;21.336;-157.724;2023-08-07T03:25:14;101302.23;;;31.06;42.00
82178;BME280;71761;21.336;-157.724;2023-08-07T03:27:39;101302.96;;;31.53;41.07
82178;BME280;71761;21.336;-157.724;2023-08-07T03:30:06;101299.30;;;31.71;40.63
82178;BME280;71761;21.336;-157.724;2023-08-07T03:32:30;101302.55;;;31.62;40.41
82178;BME280;71761;21.336;-157.724;2023-08-07T03:34:56;101302.91;;;31.63;40.71
82178;BME280;71761;21.336;-157.724;2023-08-07T03:37:21;101303.62;;;31.28;41.56
82178;BME280;71761;21.336;-157.724;2023-08-07T03:39:47;101303.39;;;31.62;41.07
82178;BME280;71761;21.336;-157.724;2023-08-07T03:42:12;101306.45;;;31.88;40.67
82178;BME280;71761;21.336;-157.724;2023-08-07T03:44:37;101305.72;;;32.17;40.25
82178;BME280;71761;21.336;-157.724;2023-08-07T03:47:03;101311.09;;;31.71;41.01
82178;BME280;71761;21.336;-157.724;2023-08-07T03:49:28;101305.78;;;31.99;40.59
82178;BME280;71761;21.336;-157.724;2023-08-07T03:51:54;101312.40;;;31.48;40.86
82178;BME280;71761;21.336;-157.724;2023-08-07T03:54:19;101312.08;;;31.65;40.66
82178;BME280;71761;21.336;-157.724;2023-08-07T03:56:45;101312.69;;;31.70;40.94
82178;BME280;71761;21.336;-157.724;2023-08-07T03:59:10;101311.34;;;31.72;41.11
82178;BME280;71761;21.336;-157.724;2023-08-07T04:01:36;101311.46;;;31.98;40.81
82178;BME280;71761;21.336;-157.724;2023-08-07T04:04:01;101315.46;;;31.70;40.99
82178;BME280;71761;21.336;-157.724;2023-08-07T04:06:26;101314.64;;;32.23;40.65
82178;BME280;71761;21.336;-157.724;2023-08-07T04:08:52;101320.39;;;31.88;40.99
82178;BME280;71761;21.336;-157.724;2023-08-07T04:11:17;101324.90;;;31.54;41.19
82178;BME280;71761;21.336;-157.724;2023-08-07T04:13:43;101321.84;;;31.85;41.79
82178;BME280;71761;21.336;-157.724;2023-08-07T04:16:08;101327.63;;;31.36;42.51
82178;BME280;71761;21.336;-157.724;2023-08-07T04:18:34;101332.72;;;31.44;42.94
82178;BME280;71761;21.336;-157.724;2023-08-07T04:20:59;101334.24;;;31.58;42.97
82178;BME280;71761;21.336;-157.724;2023-08-07T04:23:25;101351.92;;;29.38;45.07
82178;BME280;71761;21.336;-157.724;2023-08-07T04:25:50;101353.24;;;30.76;43.37
82178;BME280;71761;21.336;-157.724;2023-08-07T04:28:15;101355.49;;;30.97;42.92
82178;BME280;71761;21.336;-157.724;2023-08-07T04:30:41;101354.71;;;31.00;42.41
82178;BME280;71761;21.336;-157.724;2023-08-07T04:33:06;101357.86;;;30.19;44.57
82178;BME280;71761;21.336;-157.724;2023-08-07T04:35:32;101356.57;;;30.15;44.58
82178;BME280;71761;21.336;-157.724;2023-08-07T04:37:57;101358.77;;;31.00;43.27
82178;BME280;71761;21.336;-157.724;2023-08-07T04:40:22;101358.62;;;30.90;42.95
82178;BME280;71761;21.336;-157.724;2023-08-07T04:42:48;101366.47;;;30.39;43.62
82178;BME280;71761;21.336;-157.724;2023-08-07T04:45:13;101366.05;;;31.43;42.11
82178;BME280;71761;21.336;-157.724;2023-08-07T04:47:39;101374.21;;;31.34;42.19
82178;BME280;71761;21.336;-157.724;2023-08-07T04:50:04;101377.13;;;30.87;43.02
82178;BME280;71761;21.336;-157.724;2023-08-07T04:52:29;101381.96;;;31.54;42.11
82178;BME280;71761;21.336;-157.724;2023-08-07T04:54:54;101385.96;;;31.27;42.73
82178;BME280;71761;21.336;-157.724;2023-08-07T04:57:20;101388.90;;;31.19;42.52
82178;BME280;71761;21.336;-157.724;2023-08-07T04:59:45;101390.95;;;30.99;42.43
82178;BME280;71761;21.336;-157.724;2023-08-07T05:02:10;101392.39;;;31.24;42.16
82178;BME280;71761;21.336;-157.724;2023-08-07T05:04:35;101392.82;;;30.07;43.55
82178;BME280;71761;21.336;-157.724;2023-08-07T05:07:01;101392.65;;;30.99;42.76
82178;BME280;71761;21.336;-157.724;2023-08-07T05:09:26;101392.49;;;31.20;42.39
82178;BME280;71761;21.336;-157.724;2023-08-07T05:11:51;101393.29;;;30.61;42.87
82178;BME280;71761;21.336;-157.724;2023-08-07T05:14:17;101397.24;;;31.02;42.72
82178;BME280;71761;21.336;-157.724;2023-08-07T05:16:42;101400.66;;;30.14;42.61
82178;BME280;71761;21.336;-157.724;2023-08-07T05:19:08;101402.40;;;30.79;42.73
82178;BME280;71761;21.336;-157.724;2023-08-07T05:21:33;101407.25;;;30.39;42.37
82178;BME280;71761;21.336;-157.724;2023-08-07T05:23:58;101405.95;;;30.84;42.47
82178;BME280;71761;21.336;-157.724;2023-08-07T05:26:23;101411.02;;;31.04;42.55
82178;BME280;71761;21.336;-157.724;2023-08-07T05:28:49;101415.83;;;30.63;43.64
82178;BME280;71761;21.336;-157.724;2023-08-07T05:31:14;101415.54;;;30.35;43.75
82178;BME280;71761;21.336;-157.724;2023-08-07T05:33:39;101419.53;;;29.65;45.32
82178;BME280;71761;21.336;-157.724;2023-08-07T05:36:05;101420.60;;;30.16;43.76
82178;BME280;71761;21.336;-157.724;2023-08-07T05:38:30;101418.93;;;31.44;42.86
82178;BME280;71761;21.336;-157.724;2023-08-07T05:40:56;101423.81;;;30.93;42.85
82178;BME280;71761;21.336;-157.724;2023-08-07T05:43:21;101428.58;;;30.64;43.46
82178;BME280;71761;21.336;-157.724;2023-08-07T05:45:47;101429.46;;;30.82;43.32
82178;BME280;71761;21.336;-157.724;2023-08-07T05:48:13;101432.03;;;31.03;43.39
82178;BME280;71761;21.336;-157.724;2023-08-07T05:50:38;101436.40;;;31.31;42.97
82178;BME280;71761;21.336;-157.724;2023-08-07T05:53:03;101439.10;;;30.32;44.06
82178;BME280;71761;21.336;-157.724;2023-08-07T05:55:28;101439.49;;;30.72;43.72
82178;BME280;71761;21.336;-157.724;2023-08-07T05:57:54;101442.63;;;30.76;43.23
82178;BME280;71761;21.336;-157.724;2023-08-07T06:00:19;101445.15;;;30.62;43.44
82178;BME280;71761;21.336;-157.724;2023-08-07T06:02:45;101448.55;;;31.02;42.78
82178;BME280;71761;21.336;-157.724;2023-08-07T06:05:11;101446.53;;;29.25;45.85
82178;BME280;71761;21.336;-157.724;2023-08-07T06:07:36;101449.05;;;29.23;46.05
82178;BME280;71761;21.336;-157.724;2023-08-07T06:10:01;101449.58;;;30.11;44.73
82178;BME280;71761;21.336;-157.724;2023-08-07T06:12:26;101448.37;;;30.68;43.86
82178;BME280;71761;21.336;-157.724;2023-08-07T06:14:52;101456.27;;;30.58;44.04
82178;BME280;71761;21.336;-157.724;2023-08-07T06:17:17;101461.21;;;30.55;44.01
82178;BME280;71761;21.336;-157.724;2023-08-07T06:19:42;101465.28;;;30.26;44.44
82178;BME280;71761;21.336;-157.724;2023-08-07T06:22:08;101470.14;;;30.54;43.71
82178;BME280;71761;21.336;-157.724;2023-08-07T06:24:34;101467.54;;;30.59;44.06
82178;BME280;71761;21.336;-157.724;2023-08-07T06:26:58;101468.27;;;30.19;44.59
82178;BME280;71761;21.336;-157.724;2023-08-07T06:29:24;101466.89;;;30.66;43.89
82178;BME280;71761;21.336;-157.724;2023-08-07T06:31:49;101471.78;;;30.67;43.99
82178;BME280;71761;21.336;-157.724;2023-08-07T06:34:14;101475.40;;;30.46;44.40
82178;BME280;71761;21.336;-157.724;2023-08-07T06:36:41;101478.52;;;30.37;44.18
82178;BME280;71761;21.336;-157.724;2023-08-07T06:39:05;101474.54;;;30.82;43.91
82178;BME280;71761;21.336;-157.724;2023-08-07T06:41:31;101475.00;;;30.49;44.48
82178;BME280;71761;21.336;-157.724;2023-08-07T06:43:56;101475.32;;;30.24;44.82
82178;BME280;71761;21.336;-157.724;2023-08-07T06:46:22;101479.60;;;29.78;45.47
82178;BME280;71761;21.336;-157.724;2023-08-07T06:48:47;101481.73;;;29.88;45.51
82178;BME280;71761;21.336;-157.724;2023-08-07T06:51:14;101480.62;;;29.69;45.23
82178;BME280;71761;21.336;-157.724;2023-08-07T06:53:38;101480.66;;;29.03;46.76
82178;BME280;71761;21.336;-157.724;2023-08-07T06:56:03;101479.67;;;29.59;45.29
82178;BME280;71761;21.336;-157.724;2023-08-07T06:58:28;101481.62;;;30.58;43.78
82178;BME280;71761;21.336;-157.724;2023-08-07T07:00:55;101484.69;;;29.69;45.65
82178;BME280;71761;21.336;-157.724;2023-08-07T07:03:20;101485.09;;;29.76;45.78
82178;BME280;71761;21.336;-157.724;2023-08-07T07:05:45;101494.06;;;30.17;44.88
82178;BME280;71761;21.336;-157.724;2023-08-07T07:08:12;101496.08;;;30.33;44.52
82178;BME280;71761;21.336;-157.724;2023-08-07T07:10:36;101494.99;;;30.57;44.00
82178;BME280;71761;21.336;-157.724;2023-08-07T07:13:01;101499.66;;;30.44;44.05
82178;BME280;71761;21.336;-157.724;2023-08-07T07:15:26;101505.39;;;30.40;43.90
82178;BME280;71761;21.336;-157.724;2023-08-07T07:17:52;101506.36;;;30.68;43.54
82178;BME280;71761;21.336;-157.724;2023-08-07T07:20:18;101507.14;;;30.66;43.40
82178;BME280;71761;21.336;-157.724;2023-08-07T07:22:43;101510.09;;;30.85;43.02
82178;BME280;71761;21.336;-157.724;2023-08-07T07:25:09;101509.07;;;30.13;44.02
82178;BME280;71761;21.336;-157.724;2023-08-07T07:27:34;101513.78;;;30.82;43.32
82178;BME280;71761;21.336;-157.724;2023-08-07T07:29:59;101518.09;;;30.72;43.55
82178;BME280;71761;21.336;-157.724;2023-08-07T07:32:24;101518.12;;;30.69;43.59
82178;BME280;71761;21.336;-157.724;2023-08-07T07:34:50;101521.75;;;29.83;45.12
82178;BME280;71761;21.336;-157.724;2023-08-07T07:37:15;101521.18;;;30.37;44.77
82178;BME280;71761;21.336;-157.724;2023-08-07T07:39:41;101524.42;;;30.42;44.20
82178;BME280;71761;21.336;-157.724;2023-08-07T07:42:08;101523.61;;;30.79;43.69
82178;BME280;71761;21.336;-157.724;2023-08-07T07:44:32;101528.22;;;30.82;43.66
82178;BME280;71761;21.336;-157.724;2023-08-07T07:46:57;101528.75;;;30.48;44.21
82178;BME280;71761;21.336;-157.724;2023-08-07T07:49:22;101530.67;;;30.30;44.48
82178;BME280;71761;21.336;-157.724;2023-08-07T07:51:48;101531.77;;;30.47;44.19
82178;BME280;71761;21.336;-157.724;2023-08-07T07:54:13;101531.94;;;30.47;44.22
82178;BME280;71761;21.336;-157.724;2023-08-07T07:56:39;101532.52;;;30.47;44.19
82178;BME280;71761;21.336;-157.724;2023-08-07T07:59:04;101535.06;;;30.59;44.02
82178;BME280;71761;21.336;-157.724;2023-08-07T08:01:30;101538.45;;;29.85;45.18
82178;BME280;71761;21.336;-157.724;2023-08-07T08:03:55;101539.78;;;30.17;44.70
82178;BME280;71761;21.336;-157.724;2023-08-07T08:06:20;101539.11;;;30.32;44.41
82178;BME280;71761;21.336;-157.724;2023-08-07T08:08:46;101540.55;;;30.42;44.15
82178;BME280;71761;21.336;-157.724;2023-08-07T08:11:13;101544.48;;;30.05;44.61
82178;BME280;71761;21.336;-157.724;2023-08-07T08:13:37;101540.69;;;30.27;44.24
82178;BME280;71761;21.336;-157.724;2023-08-07T08:16:02;101537.60;;;30.39;44.01
82178;BME280;71761;21.336;-157.724;2023-08-07T08:18:28;101536.63;;;30.02;44.57
82178;BME280;71761;21.336;-157.724;2023-08-07T08:20:55;101540.11;;;29.93;44.86
82178;BME280;71761;21.336;-157.724;2023-08-07T08:23:19;101544.75;;;30.35;44.45
82178;BME280;71761;21.336;-157.724;2023-08-07T08:25:44;101546.31;;;30.14;44.05
82178;BME280;71761;21.336;-157.724;2023-08-07T08:28:09;101545.15;;;30.33;43.79
82178;BME280;71761;21.336;-157.724;2023-08-07T08:30:35;101543.52;;;30.59;43.43
82178;BME280;71761;21.336;-157.724;2023-08-07T08:33:00;101542.27;;;30.76;43.23
82178;BME280;71761;21.336;-157.724;2023-08-07T08:35:26;101543.31;;;30.78;43.19
82178;BME280;71761;21.336;-157.724;2023-08-07T08:37:51;101545.49;;;30.75;43.37
82178;BME280;71761;21.336;-157.724;2023-08-07T08:40:17;101546.98;;;30.47;43.51
82178;BME280;71761;21.336;-157.724;2023-08-07T08:42:42;101543.95;;;30.25;43.77
82178;BME280;71761;21.336;-157.724;2023-08-07T08:45:09;101542.75;;;30.75;43.07
82178;BME280;71761;21.336;-157.724;2023-08-07T08:47:33;101540.29;;;30.82;43.01
82178;BME280;71761;21.336;-157.724;2023-08-07T08:50:03;101542.33;;;30.68;43.11
82178;BME280;71761;21.336;-157.724;2023-08-07T08:52:23;101540.33;;;30.65;43.23
82178;BME280;71761;21.336;-157.724;2023-08-07T08:54:49;101543.98;;;30.06;44.25
82178;BME280;71761;21.336;-157.724;2023-08-07T08:57:15;101542.37;;;29.66;44.36
82178;BME280;71761;21.336;-157.724;2023-08-07T08:59:40;101543.23;;;30.01;44.27
82178;BME280;71761;21.336;-157.724;2023-08-07T09:02:05;101541.79;;;30.26;43.89
82178;BME280;71761;21.336;-157.724;2023-08-07T09:04:30;101539.45;;;30.51;43.21
82178;BME280;71761;21.336;-157.724;2023-08-07T09:06:55;101543.60;;;30.52;43.27
82178;BME280;71761;21.336;-157.724;2023-08-07T09:09:21;101542.67;;;30.16;43.67
82178;BME280;71761;21.336;-157.724;2023-08-07T09:11:47;101544.58;;;30.42;43.22
82178;BME280;71761;21.336;-157.724;2023-08-07T09:14:16;101540.55;;;29.93;43.94
82178;BME280;71761;21.336;-157.724;2023-08-07T09:16:37;101535.72;;;30.18;43.58
82178;BME280;71761;21.336;-157.724;2023-08-07T09:19:03;101533.58;;;29.73;44.59
82178;BME280;71761;21.336;-157.724;2023-08-07T09:21:28;101534.83;;;30.28;43.49
82178;BME280;71761;21.336;-157.724;2023-08-07T09:23:53;101535.66;;;30.53;43.47
82178;BME280;71761;21.336;-157.724;2023-08-07T09:26:23;101533.84;;;30.30;43.47
82178;BME280;71761;21.336;-157.724;2023-08-07T09:28:44;101532.51;;;30.46;43.38
82178;BME280;71761;21.336;-157.724;2023-08-07T09:31:13;101532.13;;;30.53;43.04
82178;BME280;71761;21.336;-157.724;2023-08-07T09:33:35;101532.07;;;30.45;43.25
82178;BME280;71761;21.336;-157.724;2023-08-07T09:36:01;101531.28;;;31.07;42.68
82178;BME280;71761;21.336;-157.724;2023-08-07T09:38:29;101536.04;;;30.66;42.93
82178;BME280;71761;21.336;-157.724;2023-08-07T09:40:52;101530.81;;;30.80;42.83
82178;BME280;71761;21.336;-157.724;2023-08-07T09:43:21;101530.37;;;30.17;43.60
82178;BME280;71761;21.336;-157.724;2023-08-07T09:45:42;101529.02;;;30.46;43.12
82178;BME280;71761;21.336;-157.724;2023-08-07T09:48:07;101527.68;;;30.49;43.22
82178;BME280;71761;21.336;-157.724;2023-08-07T09:50:34;101529.47;;;30.27;43.34
82178;BME280;71761;21.336;-157.724;2023-08-07T09:52:59;101535.84;;;30.73;43.08
82178;BME280;71761;21.336;-157.724;2023-08-07T09:55:24;101528.19;;;30.87;42.80
82178;BME280;71761;21.336;-157.724;2023-08-07T09:57:50;101531.11;;;30.79;42.85
82178;BME280;71761;21.336;-157.724;2023-08-07T10:00:15;101533.32;;;30.77;43.00
82178;BME280;71761;21.336;-157.724;2023-08-07T10:02:41;101534.34;;;30.88;42.82
82178;BME280;71761;21.336;-157.724;2023-08-07T10:05:07;101528.49;;;31.05;42.54
82178;BME280;71761;21.336;-157.724;2023-08-07T10:07:31;101530.56;;;31.05;42.67
82178;BME280;71761;21.336;-157.724;2023-08-07T10:09:57;101526.84;;;30.87;42.90
82178;BME280;71761;21.336;-157.724;2023-08-07T10:12:22;101525.79;;;30.69;43.09
82178;BME280;71761;21.336;-157.724;2023-08-07T10:14:47;101526.18;;;30.68;43.15
82178;BME280;71761;21.336;-157.724;2023-08-07T10:17:13;101522.15;;;30.12;43.61
82178;BME280;71761;21.336;-157.724;2023-08-07T10:19:38;101521.86;;;30.59;43.32
82178;BME280;71761;21.336;-157.724;2023-08-07T10:22:04;101517.24;;;30.28;43.84
82178;BME280;71761;21.336;-157.724;2023-08-07T10:24:30;101515.79;;;29.95;44.33
82178;BME280;71761;21.336;-157.724;2023-08-07T10:26:55;101517.59;;;30.30;43.81
82178;BME280;71761;21.336;-157.724;2023-08-07T10:29:20;101514.70;;;30.28;43.88
82178;BME280;71761;21.336;-157.724;2023-08-07T10:31:46;101509.26;;;30.39;43.74
82178;BME280;71761;21.336;-157.724;2023-08-07T10:34:11;101503.38;;;30.24;44.02
82178;BME280;71761;21.336;-157.724;2023-08-07T10:36:37;101502.74;;;30.75;44.03
82178;BME280;71761;21.336;-157.724;2023-08-07T10:39:06;101498.66;;;30.68;43.69
82178;BME280;71761;21.336;-157.724;2023-08-07T10:43:53;101495.98;;;30.47;43.90
82178;BME280;71761;21.336;-157.724;2023-08-07T10:46:20;101494.73;;;29.60;45.18
82178;BME280;71761;21.336;-157.724;2023-08-07T10:48:45;101499.93;;;29.86;44.79
82178;BME280;71761;21.336;-157.724;2023-08-07T10:51:12;101504.23;;;30.34;44.69
82178;BME280;71761;21.336;-157.724;2023-08-07T10:53:37;101503.06;;;30.02;45.11
82178;BME280;71761;21.336;-157.724;2023-08-07T10:56:02;101500.24;;;30.40;45.10
82178;BME280;71761;21.336;-157.724;2023-08-07T10:58:26;101496.10;;;30.13;45.19
82178;BME280;71761;21.336;-157.724;2023-08-07T11:00:51;101498.84;;;30.19;45.72
82178;BME280;71761;21.336;-157.724;2023-08-07T11:05:43;101496.25;;;30.39;46.13
82178;BME280;71761;21.336;-157.724;2023-08-07T11:08:08;101495.08;;;30.09;45.98
82178;BME280;71761;21.336;-157.724;2023-08-07T11:10:32;101494.70;;;30.07;46.31
82178;BME280;71761;21.336;-157.724;2023-08-07T11:12:59;101494.77;;;30.15;45.66
82178;BME280;71761;21.336;-157.724;2023-08-07T11:15:23;101492.77;;;30.34;45.13
82178;BME280;71761;21.336;-157.724;2023-08-07T11:17:50;101492.13;;;29.84;46.07
82178;BME280;71761;21.336;-157.724;2023-08-07T11:20:14;101489.69;;;29.79;46.01
82178;BME280;71761;21.336;-157.724;2023-08-07T11:22:40;101486.95;;;29.96;45.86
82178;BME280;71761;21.336;-157.724;2023-08-07T11:25:06;101483.42;;;30.53;45.07
82178;BME280;71761;21.336;-157.724;2023-08-07T11:27:31;101479.41;;;30.14;45.62
82178;BME280;71761;21.336;-157.724;2023-08-07T11:29:56;101481.11;;;30.24;45.19
82178;BME280;71761;21.336;-157.724;2023-08-07T11:32:22;101480.21;;;30.41;45.18
82178;BME280;71761;21.336;-157.724;2023-08-07T11:34:49;101476.88;;;30.60;44.92
82178;BME280;71761;21.336;-157.724;2023-08-07T11:37:16;101474.35;;;30.09;45.31
82178;BME280;71761;21.336;-157.724;2023-08-07T11:39:42;101473.45;;;30.11;45.09
82178;BME280;71761;21.336;-157.724;2023-08-07T11:42:03;101471.87;;;29.95;45.74
82178;BME280;71761;21.336;-157.724;2023-08-07T11:44:28;101464.41;;;29.87;45.33
82178;BME280;71761;21.336;-157.724;2023-08-07T11:46:54;101461.40;;;29.97;45.20
82178;BME280;71761;21.336;-157.724;2023-08-07T11:49:19;101461.46;;;30.32;44.53
82178;BME280;71761;21.336;-157.724;2023-08-07T11:51:45;101456.38;;;30.02;45.10
82178;BME280;71761;21.336;-157.724;2023-08-07T11:54:15;101453.09;;;30.65;45.02
82178;BME280;71761;21.336;-157.724;2023-08-07T11:56:35;101451.91;;;30.28;44.94
82178;BME280;71761;21.336;-157.724;2023-08-07T11:59:03;101453.52;;;30.48;44.55
82178;BME280;71761;21.336;-157.724;2023-08-07T12:01:27;101452.46;;;30.44;44.59
82178;BME280;71761;21.336;-157.724;2023-08-07T12:03:53;101448.41;;;30.50;44.86
82178;BME280;71761;21.336;-157.724;2023-08-07T12:06:17;101457.19;;;30.36;45.21
82178;BME280;71761;21.336;-157.724;2023-08-07T12:08:43;101452.38;;;29.68;46.57
82178;BME280;71761;21.336;-157.724;2023-08-07T12:11:08;101454.36;;;30.13;45.65
82178;BME280;71761;21.336;-157.724;2023-08-07T12:13:36;101454.94;;;29.89;46.11
82178;BME280;71761;21.336;-157.724;2023-08-07T12:15:59;101447.94;;;30.15;46.39